Time;durP1;ratioP1;P1;durP2;ratioP2;P2;SDS_P1;SDS_P2;PMS_P1;PMS_P2;Temp;Humidity;BMP_temperature;BMP_pressure;BME280_temperature;BME280_humidity;BME280_pressure;Samples;Min_cycle;Max_cycle;Signal;HPM_P1;HPM_P2
2021/11/18 00:00:53;;;;;;;12.30;2.00;;;;;;;6.21;100.00;102063.97;10181930;28;20042;-70
2021/11/18 00:05:50;;;;;;;13.77;2.20;;;;;;;6.22;100.00;102071.03;10154603;28;20062;-69
2021/11/18 00:10:57;;;;;;;16.13;3.28;;;;;;;6.14;100.00;102069.59;10157001;28;20047;-71
2021/11/18 00:15:54;;;;;;;10.05;1.95;;;;;;;6.02;100.00;102066.22;10152987;28;20051;-70
2021/11/18 00:20:55;;;;;;;17.38;2.63;;;;;;;6.04;100.00;102064.06;10150590;28;20078;-71
2021/11/18 00:25:51;;;;;;;16.92;2.97;;;;;;;5.95;100.00;102066.41;10138990;28;20047;-72
2021/11/18 00:30:49;;;;;;;11.57;2.58;;;;;;;6.03;100.00;102084.94;10145693;28;20736;-70
2021/11/18 00:35:46;;;;;;;15.88;2.88;;;;;;;6.08;100.00;102082.31;10155047;28;20500;-70
2021/11/18 00:40:44;;;;;;;17.77;3.15;;;;;;;6.06;100.00;102084.47;10148367;28;20070;-71
2021/11/18 00:45:42;;;;;;;13.93;1.95;;;;;;;6.20;100.00;102078.66;10157784;28;20081;-69
2021/11/18 00:50:43;;;;;;;17.45;2.60;;;;;;;6.14;100.00;102085.09;10170894;28;20069;-70
2021/11/18 00:55:59;;;;;;;15.45;2.42;;;;;;;6.14;100.00;102068.78;10166871;28;20062;-70
2021/11/18 01:00:56;;;;;;;14.82;2.47;;;;;;;6.02;100.00;102061.59;10171892;28;20054;-69
2021/11/18 01:05:54;;;;;;;13.88;2.47;;;;;;;5.95;100.00;102055.53;10158937;28;20142;-70
2021/11/18 01:10:53;;;;;;;16.67;2.60;;;;;;;5.90;100.00;102055.47;10159613;28;20046;-70
2021/11/18 01:15:49;;;;;;;19.90;2.50;;;;;;;5.86;100.00;102059.75;10159935;28;20097;-70
2021/11/18 01:20:46;;;;;;;23.80;2.90;;;;;;;5.79;100.00;102075.41;10167291;28;20129;-70
2021/11/18 01:25:43;;;;;;;19.02;2.53;;;;;;;5.81;100.00;102087.66;10154589;28;20621;-71
2021/11/18 01:30:41;;;;;;;25.35;3.53;;;;;;;5.83;100.00;102090.94;10149096;28;20042;-70
2021/11/18 01:35:44;;;;;;;14.93;2.53;;;;;;;5.82;100.00;102091.19;10167858;28;20069;-69
2021/11/18 01:40:45;;;;;;;13.70;2.70;;;;;;;5.80;100.00;102090.59;10143515;28;20082;-68
2021/11/18 01:45:43;;;;;;;17.48;2.33;;;;;;;5.81;100.00;102097.69;10155952;28;20489;-70
2021/11/18 01:50:42;;;;;;;19.05;4.18;;;;;;;5.73;100.00;102092.69;10141666;28;20043;-70
2021/11/18 01:55:42;;;;;;;17.23;3.08;;;;;;;5.72;100.00;102099.19;10164933;28;20101;-69
2021/11/18 02:00:46;;;;;;;19.83;2.55;;;;;;;5.75;100.00;102104.94;10156068;28;20046;-69
2021/11/18 02:06:01;;;;;;;20.27;2.72;;;;;;;5.78;100.00;102092.75;10134055;28;20508;-69
2021/11/18 02:11:06;;;;;;;23.08;2.40;;;;;;;5.74;100.00;102092.44;10149866;28;20468;-69
2021/11/18 02:16:05;;;;;;;25.50;2.75;;;;;;;5.74;100.00;102091.63;10147743;28;20046;-69
2021/11/18 02:21:13;;;;;;;12.43;2.45;;;;;;;5.73;100.00;102093.50;10150739;28;20054;-72
2021/11/18 02:26:10;;;;;;;17.33;2.83;;;;;;;5.78;100.00;102098.19;10148191;28;20042;-70
2021/11/18 02:31:34;;;;;;;17.80;2.30;;;;;;;5.83;100.00;102087.41;10154102;28;20132;-70
2021/11/18 02:36:31;;;;;;;19.50;2.60;;;;;;;5.79;100.00;102100.66;10142620;28;20069;-71
2021/11/18 02:41:27;;;;;;;25.83;4.32;;;;;;;5.86;100.00;102100.47;10147661;28;20134;-72
2021/11/18 02:46:24;;;;;;;21.90;2.40;;;;;;;5.84;100.00;102108.84;10152754;28;20388;-71
2021/11/18 02:51:22;;;;;;;15.80;2.22;;;;;;;5.89;100.00;102110.81;10162639;28;20129;-71
2021/11/18 02:56:19;;;;;;;19.65;2.85;;;;;;;5.92;100.00;102104.91;10146169;28;20050;-71
2021/11/18 03:01:21;;;;;;;17.33;2.25;;;;;;;5.96;100.00;102095.19;10149573;28;20089;-70
2021/11/18 03:06:18;;;;;;;20.27;2.80;;;;;;;5.98;100.00;102084.88;10164889;28;20053;-70
2021/11/18 03:11:17;;;;;;;19.30;3.17;;;;;;;6.01;100.00;102087.13;10161467;28;20134;-70
2021/11/18 03:16:14;;;;;;;15.85;3.05;;;;;;;6.09;100.00;102096.69;10162369;28;20088;-70
2021/11/18 03:21:15;;;;;;;17.42;2.65;;;;;;;6.15;100.00;102092.97;10150491;28;20407;-70
2021/11/18 03:26:14;;;;;;;19.52;3.45;;;;;;;6.19;100.00;102104.13;10150801;28;20057;-69
2021/11/18 03:31:13;;;;;;;19.60;3.58;;;;;;;6.23;100.00;102106.09;10145874;28;20487;-69
2021/11/18 03:36:12;;;;;;;20.35;3.03;;;;;;;6.25;100.00;102108.56;10152776;28;20396;-69
2021/11/18 03:41:09;;;;;;;22.63;3.08;;;;;;;6.30;100.00;102105.91;10153585;28;20075;-70
2021/11/18 03:46:07;;;;;;;17.08;3.22;;;;;;;6.33;100.00;102102.66;10133741;28;20081;-69
2021/11/18 03:51:06;;;;;;;26.90;3.10;;;;;;;6.38;100.00;102113.56;10146265;28;20512;-70
2021/11/18 03:56:06;;;;;;;18.52;3.15;;;;;;;6.41;100.00;102110.38;10149998;28;20054;-70
2021/11/18 04:01:05;;;;;;;19.58;2.78;;;;;;;6.47;100.00;102106.63;10152209;28;20141;-70
2021/11/18 04:06:03;;;;;;;16.58;3.00;;;;;;;6.49;100.00;102112.63;10154734;28;20065;-70
2021/11/18 04:10:59;;;;;;;21.38;3.28;;;;;;;6.52;100.00;102112.13;10155571;28;20074;-69
2021/11/18 04:15:56;;;;;;;19.52;3.25;;;;;;;6.57;100.00;102115.94;10163793;28;20074;-72
2021/11/18 04:20:53;;;;;;;24.65;3.63;;;;;;;6.59;100.00;102124.66;10162693;28;20074;-70
2021/11/18 04:25:50;;;;;;;21.30;2.92;;;;;;;6.61;100.00;102122.53;10157408;28;20042;-72
2021/11/18 04:30:57;;;;;;;26.83;3.78;;;;;;;6.60;100.00;102127.13;10152765;28;20085;-70
2021/11/18 04:35:54;;;;;;;22.15;3.28;;;;;;;6.63;100.00;102125.81;10136969;28;20073;-70
2021/11/18 04:40:51;;;;;;;17.63;3.28;;;;;;;6.62;100.00;102116.03;10155015;28;20109;-68
2021/11/18 04:45:48;;;;;;;27.90;3.28;;;;;;;6.67;100.00;102116.06;10133938;28;20458;-70
2021/11/18 04:50:45;;;;;;;23.42;3.88;;;;;;;6.61;100.00;102112.47;10140142;28;20050;-67
2021/11/18 04:55:44;;;;;;;20.73;3.85;;;;;;;6.68;100.00;102117.69;10133623;28;20042;-69
2021/11/18 05:00:47;;;;;;;20.45;4.47;;;;;;;6.73;100.00;102115.03;10136189;28;20043;-70
2021/11/18 05:05:45;;;;;;;22.33;3.75;;;;;;;6.79;100.00;102114.00;10131318;28;20046;-70
2021/11/18 05:10:45;;;;;;;17.98;3.60;;;;;;;6.79;100.00;102119.44;10135897;28;20068;-70
2021/11/18 05:15:44;;;;;;;19.70;4.47;;;;;;;6.78;100.00;102136.00;10121010;28;20137;-67
2021/11/18 05:20:42;;;;;;;20.35;4.35;;;;;;;6.79;100.00;102133.03;10129970;28;20038;-70
2021/11/18 05:25:39;;;;;;;20.13;4.07;;;;;;;6.79;100.00;102127.59;10126875;28;20050;-70
2021/11/18 05:30:37;;;;;;;21.02;5.07;;;;;;;6.77;100.00;102118.88;10126651;28;20051;-70
2021/11/18 05:35:34;;;;;;;22.58;4.50;;;;;;;6.83;100.00;102131.44;10141936;28;20810;-71
2021/11/18 05:40:33;;;;;;;17.67;4.10;;;;;;;6.84;100.00;102146.66;10153085;28;20107;-70
2021/11/18 05:45:33;;;;;;;19.63;5.05;;;;;;;6.83;100.00;102153.19;10154020;28;20121;-69
2021/11/18 05:50:30;;;;;;;26.52;5.10;;;;;;;6.85;100.00;102144.78;10118729;28;20412;-70
2021/11/18 05:55:30;;;;;;;29.08;5.07;;;;;;;6.88;100.00;102144.25;10137671;28;20042;-70
2021/11/18 06:00:29;;;;;;;24.88;4.35;;;;;;;6.91;100.00;102149.19;10134865;28;20073;-70
2021/11/18 06:05:27;;;;;;;30.25;5.13;;;;;;;6.98;100.00;102143.53;10151884;28;20050;-69
2021/11/18 06:10:26;;;;;;;26.00;5.00;;;;;;;6.99;100.00;102167.75;10145446;28;20055;-69
2021/11/18 06:15:23;;;;;;;18.33;4.28;;;;;;;7.02;100.00;102169.13;10139152;28;20043;-71
2021/11/18 06:20:20;;;;;;;26.75;5.00;;;;;;;7.05;100.00;102174.03;10152613;28;20054;-70
2021/11/18 06:25:20;;;;;;;20.52;5.18;;;;;;;7.05;100.00;102177.56;10155967;28;20083;-70
2021/11/18 06:30:23;;;;;;;25.42;5.55;;;;;;;7.08;100.00;102165.38;10137483;28;20470;-71
2021/11/18 06:35:20;;;;;;;27.38;5.15;;;;;;;7.09;100.00;102186.06;10134680;28;20050;-70
2021/11/18 06:40:19;;;;;;;26.58;5.55;;;;;;;7.11;100.00;102197.50;10132327;28;20056;-70
2021/11/18 06:45:19;;;;;;;28.27;5.22;;;;;;;7.13;100.00;102184.47;10133462;28;20108;-70
2021/11/18 06:50:16;;;;;;;29.33;5.57;;;;;;;7.12;100.00;102199.13;10137674;28;20050;-70
2021/11/18 06:55:14;;;;;;;29.83;5.57;;;;;;;7.17;100.00;102199.16;10127415;28;20054;-69
2021/11/18 07:00:12;;;;;;;27.75;5.18;;;;;;;7.15;100.00;102194.00;10124402;28;20081;-72
2021/11/18 07:05:16;;;;;;;23.35;4.30;;;;;;;7.21;100.00;102192.13;10139084;28;20046;-70
2021/11/18 07:10:13;;;;;;;24.80;5.60;;;;;;;7.26;100.00;102184.00;10144502;28;20133;-72
2021/11/18 07:15:11;;;;;;;30.38;5.13;;;;;;;7.30;100.00;102190.59;10143629;28;20069;-71
2021/11/18 07:20:08;;;;;;;27.55;5.70;;;;;;;7.35;100.00;102193.34;10134346;28;20077;-69
2021/11/18 07:25:09;;;;;;;26.65;5.07;;;;;;;7.43;100.00;102199.41;10144042;28;20085;-73
2021/11/18 07:30:08;;;;;;;35.20;6.18;;;;;;;7.43;100.00;102215.75;10128711;28;20046;-70
2021/11/18 07:35:05;;;;;;;25.60;5.80;;;;;;;7.46;100.00;102215.22;10136392;28;20057;-71
2021/11/18 07:40:06;;;;;;;22.80;5.00;;;;;;;7.50;100.00;102221.78;10131430;28;20590;-72
2021/11/18 07:45:03;;;;;;;34.75;6.05;;;;;;;7.52;100.00;102219.59;10131704;28;20081;-66
2021/11/18 07:50:01;;;;;;;33.67;6.22;;;;;;;7.52;100.00;102208.69;10134673;28;20460;-67
2021/11/18 07:54:57;;;;;;;33.03;7.07;;;;;;;7.55;100.00;102210.94;10157422;28;20042;-68
2021/11/18 07:59:54;;;;;;;33.20;5.95;;;;;;;7.60;100.00;102216.41;10163527;28;20042;-68
2021/11/18 08:04:51;;;;;;;23.27;6.80;;;;;;;7.60;100.00;102213.69;10162400;28;20088;-68
2021/11/18 08:09:47;;;;;;;27.92;6.32;;;;;;;7.61;100.00;102206.31;10156680;28;20101;-67
2021/11/18 08:14:43;;;;;;;24.38;6.07;;;;;;;7.69;100.00;102209.38;10144690;28;20074;-69
2021/11/18 08:19:40;;;;;;;30.15;7.70;;;;;;;7.66;100.00;102215.38;10134597;28;20074;-67
2021/11/18 08:24:37;;;;;;;22.98;6.60;;;;;;;7.72;100.00;102214.31;10141292;28;20093;-66
2021/11/18 08:29:34;;;;;;;32.85;8.35;;;;;;;7.77;100.00;102227.97;10134711;28;20050;-69
2021/11/18 08:34:31;;;;;;;26.90;7.25;;;;;;;7.80;100.00;102224.72;10144625;28;20558;-68
2021/11/18 08:39:28;;;;;;;30.52;7.25;;;;;;;7.83;100.00;102225.28;10143034;28;20413;-68
2021/11/18 08:44:26;;;;;;;36.65;8.77;;;;;;;7.88;100.00;102228.03;10133283;28;20047;-66
2021/11/18 08:49:23;;;;;;;30.52;8.20;;;;;;;7.91;100.00;102238.38;10130229;28;20046;-68
2021/11/18 08:54:23;;;;;;;37.92;9.73;;;;;;;7.97;100.00;102231.91;10167984;28;20050;-68
2021/11/18 08:59:23;;;;;;;29.65;8.57;;;;;;;8.01;100.00;102227.56;10145357;28;20592;-69
2021/11/18 09:04:22;;;;;;;26.25;7.13;;;;;;;8.00;100.00;102215.03;10136515;28;20592;-68
2021/11/18 09:09:22;;;;;;;31.92;8.25;;;;;;;7.95;100.00;102231.34;10137092;28;20134;-65
2021/11/18 09:14:19;;;;;;;38.17;8.65;;;;;;;8.04;100.00;102239.84;10142209;28;20054;-67
2021/11/18 09:19:19;;;;;;;35.40;9.52;;;;;;;8.01;100.00;102250.19;10141703;28;20045;-66
2021/11/18 09:24:41;;;;;;;29.02;8.82;;;;;;;8.04;100.00;102227.03;10137194;28;20492;-69
2021/11/18 09:29:38;;;;;;;32.33;7.78;;;;;;;8.03;100.00;102239.03;10116188;28;20050;-67
2021/11/18 09:34:34;;;;;;;34.35;8.52;;;;;;;8.10;100.00;102242.34;10132823;28;20070;-68
2021/11/18 09:39:32;;;;;;;29.13;9.30;;;;;;;8.12;100.00;102245.63;10135832;28;20066;-68
2021/11/18 09:44:31;;;;;;;36.65;10.52;;;;;;;8.15;100.00;102245.09;10130327;28;20038;-67
2021/11/18 09:49:39;;;;;;;28.73;9.27;;;;;;;8.23;100.00;102251.94;10128499;28;20153;-67
2021/11/18 09:54:42;;;;;;;40.88;10.10;;;;;;;8.32;100.00;102244.06;10138545;28;20046;-69
2021/11/18 10:00:03;;;;;;;34.67;8.60;;;;;;;8.31;100.00;102254.16;10150342;28;20046;-69
2021/11/18 10:05:11;;;;;;;34.53;8.05;;;;;;;8.32;100.00;102260.44;10143930;28;20112;-69
2021/11/18 10:10:35;;;;;;;35.38;9.30;;;;;;;8.36;100.00;102256.09;10165638;28;20150;-68
2021/11/18 10:15:38;;;;;;;31.98;9.60;;;;;;;8.38;100.00;102243.84;10162500;28;20042;-67
2021/11/18 10:20:38;;;;;;;31.98;8.32;;;;;;;8.51;100.00;102248.00;10156559;28;20046;-70
2021/11/18 10:25:38;;;;;;;36.55;9.57;;;;;;;8.61;100.00;102220.78;10142700;28;20207;-69
2021/11/18 10:30:42;;;;;;;34.53;8.80;;;;;;;8.61;100.00;102215.34;10139599;28;20046;-67
2021/11/18 10:35:57;;;;;;;32.70;8.55;;;;;;;8.58;100.00;102220.50;10129216;28;20108;-68
2021/11/18 10:41:19;;;;;;;39.83;10.00;;;;;;;8.62;100.00;102216.16;10138177;28;20053;-68
2021/11/18 10:46:38;;;;;;;35.50;10.10;;;;;;;8.61;100.00;102212.63;10135063;28;20050;-66
2021/11/18 10:51:54;;;;;;;33.72;8.85;;;;;;;8.76;100.00;102200.91;10139569;28;20050;-68
2021/11/18 10:57:00;;;;;;;27.55;8.35;;;;;;;8.76;100.00;102211.00;10126880;28;20047;-67
2021/11/18 11:01:59;;;;;;;29.10;8.55;;;;;;;8.80;100.00;102212.94;10132217;28;20043;-67
2021/11/18 11:06:57;;;;;;;33.25;9.27;;;;;;;8.85;100.00;102214.84;10129400;28;20054;-68
2021/11/18 11:12:27;;;;;;;32.15;9.02;;;;;;;8.91;100.00;102186.50;10131702;28;20050;-67
2021/11/18 11:17:58;;;;;;;31.70;7.88;;;;;;;9.00;100.00;102187.56;10124254;28;20457;-68
2021/11/18 11:23:36;;;;;;;28.45;7.55;;;;;;;9.13;100.00;102182.69;10138907;28;20042;-69
2021/11/18 11:28:55;;;;;;;34.22;8.40;;;;;;;9.11;100.00;102168.50;10149805;28;20097;-69
2021/11/18 11:34:00;;;;;;;33.22;7.85;;;;;;;9.13;100.00;102133.59;10147051;28;20555;-71
2021/11/18 11:39:15;;;;;;;28.95;6.68;;;;;;;9.20;100.00;102124.03;10142312;28;20061;-69
2021/11/18 11:44:19;;;;;;;37.13;7.13;;;;;;;9.23;100.00;102133.56;10150374;28;20073;-69
2021/11/18 11:49:35;;;;;;;32.47;7.35;;;;;;;9.30;100.00;102145.03;10144075;28;20046;-71
2021/11/18 11:55:04;;;;;;;31.90;8.20;;;;;;;9.27;100.00;102134.66;10144296;28;20047;-69
2021/11/18 12:00:16;;;;;;;27.65;6.30;;;;;;;9.32;100.00;102123.72;10132123;28;20058;-69
2021/11/18 12:05:19;;;;;;;30.58;6.05;;;;;;;9.28;100.00;102119.91;10131584;28;20116;-69
2021/11/18 12:10:27;;;;;;;36.75;6.53;;;;;;;9.28;100.00;102125.38;10140010;28;20472;-68
2021/11/18 12:15:23;;;;;;;24.63;6.95;;;;;;;9.28;100.00;102106.25;10141693;28;20646;-70
2021/11/18 12:20:27;;;;;;;29.25;6.15;;;;;;;9.22;100.00;102094.53;10142451;28;20050;-67
2021/11/18 12:25:29;;;;;;;;;;;;;;;9.21;100.00;102087.47;10157105;28;20130;-69
2021/11/18 12:30:32;;;;;;;29.40;7.22;;;;;;;9.21;100.00;102070.25;10140289;28;20321;-67
2021/11/18 12:35:28;;;;;;;25.48;5.18;;;;;;;9.26;100.00;102086.63;10160133;28;20046;-68
2021/11/18 12:40:58;;;;;;;23.25;5.80;;;;;;;9.32;100.00;102088.25;10144173;28;22935;-67
2021/11/18 12:46:19;;;;;;;28.75;6.28;;;;;;;9.30;100.00;102090.44;10128050;28;20073;-69
2021/11/18 12:51:51;;;;;;;25.77;5.40;;;;;;;9.31;100.00;102075.72;10123492;28;20412;-69
2021/11/18 12:56:48;;;;;;;27.88;5.15;;;;;;;9.26;100.00;102073.81;10093237;28;20068;-69
2021/11/18 13:01:52;;;;;;;22.77;4.80;;;;;;;9.27;100.00;102085.53;10120498;28;20050;-67
2021/11/18 13:06:52;;;;;;;29.60;7.93;;;;;;;9.18;100.00;102055.25;10129876;28;20042;-68
2021/11/18 13:11:58;;;;;;;27.88;5.63;;;;;;;9.09;100.00;102061.53;10150362;28;20169;-69
2021/11/18 13:17:31;;;;;;;24.85;5.43;;;;;;;9.02;100.00;102062.63;10155902;28;20069;-68
2021/11/18 13:22:49;;;;;;;26.15;5.45;;;;;;;8.97;100.00;102054.47;10148778;28;20635;-69
2021/11/18 13:27:54;;;;;;;26.25;5.32;;;;;;;8.95;100.00;102059.38;10130390;28;20046;-68
2021/11/18 13:32:55;;;;;;;34.33;6.20;;;;;;;8.89;100.00;102049.56;10133332;28;20100;-70
2021/11/18 13:38:23;;;;;;;31.98;6.40;;;;;;;8.82;100.00;102040.84;10140986;28;20101;-70
2021/11/18 13:43:19;;;;;;;27.80;5.65;;;;;;;8.75;100.00;102051.19;10137241;28;20500;-69
2021/11/18 13:48:17;;;;;;;27.98;6.22;;;;;;;8.64;100.00;102045.75;10136858;28;20092;-69
2021/11/18 13:53:27;;;;;;;23.63;6.28;;;;;;;8.68;100.00;102039.75;10145974;28;20084;-69
2021/11/18 13:58:53;;;;;;;22.30;5.22;;;;;;;8.60;100.00;102044.66;10140377;28;20046;-69
2021/11/18 14:03:54;;;;;;;24.63;6.25;;;;;;;8.68;100.00;102037.00;10118585;28;20074;-68
2021/11/18 14:08:55;;;;;;;25.50;5.20;;;;;;;8.66;100.00;102031.00;10154186;28;20757;-70
2021/11/18 14:13:55;;;;;;;29.05;6.47;;;;;;;8.64;100.00;102040.28;10144543;28;20093;-70
2021/11/18 14:19:04;;;;;;;39.13;6.50;;;;;;;8.69;100.00;102041.38;10164380;28;20061;-69
2021/11/18 14:24:07;;;;;;;27.38;5.57;;;;;;;8.69;100.00;102035.94;10149895;28;20051;-69
2021/11/18 14:29:25;;;;;;;;;;;;;;;8.75;100.00;102029.38;10141579;28;20074;-70
2021/11/18 14:34:45;;;;;;;29.77;6.10;;;;;;;8.78;100.00;102042.47;10123825;28;19980;-70
2021/11/18 14:39:50;;;;;;;21.92;5.13;;;;;;;8.81;100.00;102052.84;10120679;28;20071;-69
2021/11/18 14:44:59;;;;;;;22.08;5.20;;;;;;;8.75;100.00;102046.56;10108734;28;20074;-68
2021/11/18 14:50:20;;;;;;;27.33;6.38;;;;;;;8.69;100.00;102049.56;10125392;28;20433;-66
2021/11/18 14:55:16;;;;;;;37.88;7.20;;;;;;;8.69;100.00;102030.47;10122296;28;20047;-68
2021/11/18 15:00:13;;;;;;;25.52;5.95;;;;;;;8.71;100.00;102033.75;10162908;28;20089;-70
2021/11/18 15:05:09;;;;;;;33.42;7.57;;;;;;;8.72;100.00;102040.84;10137495;28;20139;-70
2021/11/18 15:10:14;;;;;;;25.33;6.82;;;;;;;8.72;100.00;102035.38;10130357;28;20049;-67
2021/11/18 15:15:14;;;;;;;38.00;6.93;;;;;;;8.72;100.00;102033.47;10135182;28;20492;-70
2021/11/18 15:20:12;;;;;;;33.78;7.40;;;;;;;8.70;100.00;102026.66;10153021;28;20076;-70
2021/11/18 15:25:18;;;;;;;26.15;6.90;;;;;;;8.70;100.00;102023.94;10148267;28;20071;-70
2021/11/18 15:30:23;;;;;;;27.23;6.88;;;;;;;8.68;100.00;102017.94;10142073;28;20054;-68
2021/11/18 15:35:23;;;;;;;36.30;8.23;;;;;;;8.70;100.00;102013.84;10139431;28;20093;-69
2021/11/18 15:40:22;;;;;;;27.67;8.18;;;;;;;8.67;100.00;102016.31;10139735;28;20105;-68
2021/11/18 15:45:21;;;;;;;25.65;8.38;;;;;;;8.72;100.00;102046.28;10131308;28;20154;-71
2021/11/18 15:50:20;;;;;;;32.90;8.00;;;;;;;8.74;100.00;102033.19;10129244;28;20043;-69
2021/11/18 15:55:16;;;;;;;31.35;9.25;;;;;;;8.77;100.00;102028.03;10144481;28;20674;-68
2021/11/18 16:00:22;;;;;;;32.28;11.23;;;;;;;8.80;100.00;102021.22;10149440;28;20487;-70
2021/11/18 16:05:20;;;;;;;27.42;8.40;;;;;;;8.77;100.00;102046.28;10126663;28;20047;-70
2021/11/18 16:10:23;;;;;;;33.90;10.15;;;;;;;8.80;100.00;102026.66;10117424;28;20046;-67
2021/11/18 16:15:21;;;;;;;;;;;;;;;8.80;100.00;102032.13;10137738;28;20062;-67
2021/11/18 16:20:23;;;;;;;24.98;9.68;;;;;;;8.79;100.00;102025.00;10138561;28;19921;-70
2021/11/18 16:25:23;;;;;;;23.77;9.93;;;;;;;8.78;100.00;102023.38;10156946;28;20076;-70
2021/11/18 16:30:24;;;;;;;30.70;11.95;;;;;;;8.78;100.00;102037.84;10158035;28;20099;-70
2021/11/18 16:35:21;;;;;;;28.83;8.85;;;;;;;8.77;100.00;102028.03;10150769;28;20042;-70
2021/11/18 16:40:27;;;;;;;24.80;10.80;;;;;;;8.77;100.00;102013.56;10172770;28;20108;-69
2021/11/18 16:45:25;;;;;;;28.35;12.32;;;;;;;8.78;100.00;102031.56;10138154;28;20070;-70
2021/11/18 16:50:29;;;;;;;29.45;13.55;;;;;;;8.79;100.00;102036.72;10149015;28;20086;-71
2021/11/18 16:55:29;;;;;;;22.52;13.60;;;;;;;8.82;100.00;102035.41;10141369;28;20081;-69
2021/11/18 17:00:30;;;;;;;26.85;15.05;;;;;;;8.82;100.00;102029.94;10157520;28;20084;-67
2021/11/18 17:05:26;;;;;;;25.67;14.35;;;;;;;8.84;100.00;102030.47;10136347;28;20126;-70
2021/11/18 17:10:24;;;;;;;24.23;14.63;;;;;;;8.81;100.00;102023.66;10145456;28;20104;-69
2021/11/18 17:15:26;;;;;;;25.23;16.42;;;;;;;8.89;100.00;102019.56;10148596;28;20050;-68
2021/11/18 17:20:24;;;;;;;28.10;16.80;;;;;;;8.89;100.00;102024.19;10141180;28;20054;-69
2021/11/18 17:25:25;;;;;;;28.23;17.75;;;;;;;8.93;100.00;102007.00;10143955;28;20517;-69
2021/11/18 17:30:32;;;;;;;25.38;17.85;;;;;;;8.96;100.00;102009.19;10134829;28;20097;-69
2021/11/18 17:35:33;;;;;;;33.67;18.00;;;;;;;8.96;100.00;102006.47;10156373;28;20158;-70
2021/11/18 17:40:33;;;;;;;32.25;20.58;;;;;;;8.99;100.00;102013.28;10148547;28;20734;-69
2021/11/18 17:45:38;;;;;;;25.30;16.13;;;;;;;8.99;100.00;102019.53;10124853;28;20059;-66
2021/11/18 17:50:43;;;;;;;30.35;19.15;;;;;;;8.97;100.00;102016.28;10144821;28;20477;-69
2021/11/18 17:55:42;;;;;;;39.78;19.30;;;;;;;9.02;100.00;102013.53;10121132;28;20230;-69
2021/11/18 18:00:46;;;;;;;28.10;20.13;;;;;;;9.06;100.00;102024.72;10135733;28;20059;-68
2021/11/18 18:05:44;;;;;;;27.80;20.20;;;;;;;9.09;100.00;102039.72;10136546;28;20042;-68
2021/11/18 18:10:42;;;;;;;23.95;15.70;;;;;;;9.10;100.00;102030.44;10139809;28;20109;-67
2021/11/18 18:15:40;;;;;;;28.10;18.77;;;;;;;9.13;100.00;102029.91;10125386;28;20271;-67
2021/11/18 18:20:47;;;;;;;27.77;18.58;;;;;;;9.15;100.00;102016.81;10144108;28;20092;-68
2021/11/18 18:25:45;;;;;;;26.00;18.35;;;;;;;9.17;100.00;102014.63;10133404;28;20042;-68
2021/11/18 18:30:46;;;;;;;26.02;20.10;;;;;;;9.21;100.00;102023.84;10132264;28;20046;-68
2021/11/18 18:35:43;;;;;;;26.52;19.33;;;;;;;9.22;100.00;102018.13;10122340;28;20145;-69
2021/11/18 18:40:55;;;;;;;30.05;22.15;;;;;;;9.25;100.00;102038.59;10127905;28;20113;-68
2021/11/18 18:45:53;;;;;;;30.95;20.33;;;;;;;9.27;100.00;102030.94;10125190;28;20055;-69
2021/11/18 18:50:54;;;;;;;30.08;22.70;;;;;;;9.29;100.00;102026.03;10144746;28;20296;-69
2021/11/18 18:55:52;;;;;;;30.40;21.95;;;;;;;9.32;100.00;102043.75;10129960;28;20069;-69
2021/11/18 19:00:57;;;;;;;31.65;20.85;;;;;;;9.35;100.00;102048.66;10126419;28;20073;-69
2021/11/18 19:06:04;;;;;;;31.08;21.67;;;;;;;9.35;100.00;102048.66;10118961;28;20875;-68
2021/11/18 19:11:03;;;;;;;26.60;19.83;;;;;;;9.38;100.00;102051.66;10140531;28;20530;-68
2021/11/18 19:16:04;;;;;;;26.23;20.98;;;;;;;9.38;100.00;102084.44;10143798;28;20054;-68
2021/11/18 19:21:03;;;;;;;27.30;20.85;;;;;;;9.42;100.00;102082.78;10150499;28;20050;-69
2021/11/18 19:26:16;;;;;;;28.08;18.90;;;;;;;9.43;100.00;102084.41;10144228;28;20137;-69
2021/11/18 19:36:38;;;;;;;21.30;16.13;;;;;;;9.51;100.00;102084.94;10136134;28;20049;-68
2021/11/18 19:41:40;;;;;;;21.92;16.95;;;;;;;9.52;100.00;102086.59;10145866;28;20099;-68
2021/11/18 19:46:39;;;;;;;20.55;15.77;;;;;;;9.55;100.00;102088.75;10137525;28;20473;-69
2021/11/18 19:51:41;;;;;;;20.63;16.13;;;;;;;9.56;100.00;102083.03;10126547;28;20059;-69
2021/11/18 19:56:38;;;;;;;20.83;15.60;;;;;;;9.60;100.00;102105.13;10138354;28;20126;-69
2021/11/18 20:01:44;;;;;;;22.50;16.25;;;;;;;9.62;100.00;102094.75;10151332;28;20742;-69
2021/11/18 20:06:41;;;;;;;20.45;15.18;;;;;;;9.62;100.00;102089.28;10136433;28;20052;-68
2021/11/18 20:11:38;;;;;;;20.40;14.32;;;;;;;9.63;100.00;102093.63;10156985;28;20052;-68
2021/11/18 20:16:37;;;;;;;21.73;14.52;;;;;;;9.64;100.00;102095.28;10155559;28;20053;-68
2021/11/18 20:21:36;;;;;;;19.70;15.40;;;;;;;9.65;100.00;102081.34;10141359;28;20046;-68
2021/11/18 20:26:32;;;;;;;20.90;14.10;;;;;;;9.66;100.00;102082.97;10152634;28;20054;-68
2021/11/18 20:31:38;;;;;;;16.50;13.02;;;;;;;9.69;100.00;102087.88;10139690;28;20105;-70
2021/11/18 20:36:37;;;;;;;21.88;15.30;;;;;;;9.67;100.00;102073.69;10103435;28;20132;-71
2021/11/18 20:41:35;;;;;;;23.73;15.75;;;;;;;9.69;100.00;102063.31;10122354;28;20501;-73
2021/11/18 20:46:34;;;;;;;19.83;13.05;;;;;;;9.67;100.00;102062.75;10115711;28;20081;-71
2021/11/18 20:51:42;;;;;;;19.05;14.35;;;;;;;9.72;100.00;102064.66;10134083;28;20622;-71
2021/11/18 20:56:43;;;;;;;20.83;14.40;;;;;;;9.69;100.00;102070.69;10113987;28;20687;-69
2021/11/18 21:01:44;;;;;;;20.85;14.82;;;;;;;9.70;100.00;102072.34;10114563;28;20697;-68
2021/11/18 21:06:42;;;;;;;19.13;13.52;;;;;;;9.70;100.00;102077.78;10111059;28;20430;-68
2021/11/18 21:11:39;;;;;;;18.75;13.77;;;;;;;9.69;100.00;102082.41;10135950;28;20094;-70
2021/11/18 21:16:39;;;;;;;43.60;14.32;;;;;;;9.69;100.00;102084.34;10138805;28;20487;-70
2021/11/18 21:21:41;;;;;;;20.80;15.48;;;;;;;9.72;100.00;102075.56;10136890;28;20505;-69
2021/11/18 21:26:40;;;;;;;23.40;14.93;;;;;;;9.74;100.00;102084.31;10141683;28;20046;-69
2021/11/18 21:31:37;;;;;;;21.70;15.10;;;;;;;9.75;100.00;102085.97;10137833;28;20043;-69
2021/11/18 21:36:38;;;;;;;21.92;15.07;;;;;;;9.79;100.00;102086.22;10131403;28;20054;-70
2021/11/18 21:41:35;;;;;;;22.70;15.80;;;;;;;9.80;100.00;102099.59;10122969;28;20108;-70
2021/11/18 21:46:45;;;;;;;23.60;15.32;;;;;;;9.84;100.00;102100.69;10143731;28;20508;-70
2021/11/18 21:51:45;;;;;;;21.80;14.73;;;;;;;9.88;100.00;102101.72;10143556;28;20050;-70
2021/11/18 21:56:42;;;;;;;20.60;15.13;;;;;;;9.92;100.00;102106.66;10139789;28;20464;-69
2021/11/18 22:01:50;;;;;;;20.90;14.10;;;;;;;9.93;100.00;102097.34;10156268;28;20077;-70
2021/11/18 22:06:50;;;;;;;23.40;14.60;;;;;;;9.95;100.00;102085.03;10152232;28;20136;-70
2021/11/18 22:11:49;;;;;;;20.40;14.68;;;;;;;9.98;100.00;102100.06;10159877;28;20096;-68
2021/11/18 22:16:45;;;;;;;19.77;14.50;;;;;;;10.01;100.00;102083.13;10154981;28;20070;-69
2021/11/18 22:21:46;;;;;;;19.23;14.23;;;;;;;10.02;100.00;102076.53;10158971;28;20045;-69
2021/11/18 22:26:45;;;;;;;22.70;14.55;;;;;;;10.05;100.00;102086.94;10142243;28;20074;-70
2021/11/18 22:31:41;;;;;;;17.52;12.38;;;;;;;10.08;100.00;102061.78;10133923;28;20049;-70
2021/11/18 22:36:42;;;;;;;24.45;13.00;;;;;;;10.08;100.00;102061.78;10145619;28;20053;-70
2021/11/18 22:41:43;;;;;;;19.63;13.18;;;;;;;10.11;100.00;102055.72;10133929;28;20645;-70
2021/11/18 22:46:40;;;;;;;22.52;14.73;;;;;;;10.13;100.00;102064.47;10126648;28;20073;-70
2021/11/18 22:51:36;;;;;;;19.73;13.18;;;;;;;10.17;100.00;102054.63;10138524;28;20053;-70